ΕΜΥ, Εθνική Μετεωρολογική Υπηρεσία - Δελτία Καιρού, Προγνώσεις

ΑΕΡΟΝΑΥΤΙΛΙΑ

GREEK AIRPORTS CODES

LGSY 021750Z 20012KT CAVOK 15/09 Q1013=

EUROPEAN AIRPORTS CODES

LFPO 021800Z 32008KT 280V340 9999 BKN040 05/M00 Q1013 TEMPO-SHRASN SCT030TCU=